Station: Loxton  

  Atmospheric Gas Attenuation - ITU Rec 676-11   ----------------- dB/100km -----------------
Date Time Temp RH % AH g/m3 Dew Point Wind Direction Speed kph Gust kph Barometer mB Rainfall Since 9am 24GHz 47GHz 76GHz 122GHz 134GHz 241GHz
08/05 12:00 17.9 65 9.92 11.2 26 33 1029.3 0 22.2 27.4 43.7 114.6 111.7 385.3
08/05 11:50 17.4 64 9.48 10.5 30 33 1029.4 0 21.3 26.9 42.2 110.7 106.6 367.5
08/05 11:40 17.3 64 9.43 10.4 26 32 1029.5 0 21.2 26.8 42.0 110.3 106.1 365.7
08/05 11:30 17.2 66 9.66 10.8 26 39 1029.6 0 21.6 27.2 43.0 112.9 109.3 376.8
08/05 11:20 17.3 64 9.43 10.4 24 30 1029.7 0 21.2 26.8 42.1 110.3 106.1 365.7
08/05 11:10 17.4 67 9.93 11.2 24 32 1029.8 0 22.2 27.6 44.0 115.5 112.6 388.4
08/05 11:00 16.9 66 9.49 10.5 26 39 1029.8 0 21.3 27.0 42.5 111.5 107.4 370.4
08/05 10:50 16.8 66 9.44 10.4 28 33 1029.8 0 21.2 27.0 42.4 111.1 106.9 368.6
08/05 10:40 16.7 67 9.52 10.5 32 37 1029.9 0 21.4 27.2 42.7 112.1 108.1 372.8
08/05 10:30 16.1 69 9.46 10.4 28 41 1029.9 0 21.3 27.2 42.8 112.3 108.2 372.8
08/05 10:20 16.2 69 9.51 10.5 24 32 1030 0 21.4 27.3 43.0 112.7 108.7 374.7
08/05 10:10 15.8 69 9.29 10.1 30 35 1030 0 20.9 27.1 42.3 110.9 106.3 366.3
08/05 10:00 16 70 9.54 10.5 22 32 1030.1 0 21.5 27.4 43.2 113.4 109.4 377.1
08/05 09:50 15.4 72 9.46 10.4 24 26 1030.1 0 21.3 27.5 43.2 113.4 109.2 376.2
08/05 09:40 15.7 70 9.37 10.2 17 20 1030.2 0 21.1 27.2 42.7 112.0 107.5 370.6
08/05 09:30 15.3 70 9.14 9.9 28 37 1030.2 0 20.6 27.0 42.0 110.0 105.0 361.7
08/05 09:20 15.4 69 9.07 9.7 28 32 1030.1 0 20.5 26.8 41.6 109.1 103.9 357.9
08/05 09:10 15.1 71 9.16 9.9 17 20 1030.1 0 20.7 27.1 42.2 110.5 105.6 363.5
08/05 09:00 14.7 72 9.07 9.7 19 26 1030.1 0 20.5 27.0 42.0 110.1 104.9 361.1
08/05 08:50 14.5 74 9.2 9.9 17 20 1030 0 20.8 27.3 42.6 111.8 106.9 368.2
08/05 08:40 14.3 74 9.09 9.7 20 24 1029.9 0 20.6 27.2 42.3 110.8 105.7 363.9
08/05 08:30 14.2 74 9.04 9.6 17 20 1029.9 0 20.5 27.1 42.1 110.4 105.1 362.0
08/05 08:20 14 75 9.05 9.6 19 24 1029.8 0 20.5 27.2 42.3 110.8 105.5 363.3
08/05 08:10 13.8 76 9.06 9.6 13 19 1029.6 0 20.6 27.3 42.4 111.2 105.9 364.7
08/05 08:00 13.6 77 9.06 9.6 15 22 1029.5 0 20.6 27.3 42.5 111.5 106.2 365.6
08/05 07:50 13.3 79 9.13 9.7 17 20 1029.3 0 20.7 27.5 43.0 112.6 107.6 370.3
08/05 07:40 12.6 82 9.07 9.6 11 19 1029.2 0 20.6 27.6 43.1 113.0 107.7 370.7
08/05 07:30 12.2 83 8.96 9.4 9 13 1029.2 0 20.4 27.6 42.8 112.3 106.7 367.3
08/05 07:20 12 84 8.95 9.4 13 13 1029.2 0 20.4 27.6 42.9 112.5 106.9 367.7
08/05 07:10 11.7 84 8.79 9.1 11 15 1029 0 20.1 27.4 42.4 111.1 105.1 361.3
08/05 07:00 11.5 84 8.68 8.9 11 13 1028.9 0 19.9 27.3 42.0 110.1 103.8 356.9
08/05 06:50 11.5 83 8.57 8.7 9 11 1028.8 0 19.6 27.1 41.6 108.9 102.3 351.5
08/05 06:40 11.5 83 8.57 8.7 11 13 1028.8 0 19.6 27.1 41.6 108.9 102.3 351.5
08/05 06:30 11.5 82 8.47 8.5 11 13 1028.8 0 19.4 27.0 41.1 107.8 100.9 346.7
08/05 06:20 11.5 81 8.37 8.4 11 13 1028.7 0 19.2 26.8 40.7 106.7 99.5 341.9
08/05 06:10 11.5 81 8.37 8.4 11 13 1028.8 0 19.2 26.8 40.7 106.7 99.5 341.9
08/05 06:00 11.4 81 8.32 8.3 11 15 1028.7 0 19.1 26.7 40.6 106.2 99.0 340.0
08/05 05:50 11.3 81 8.26 8.2 9 11 1028.7 0 19.0 26.7 40.4 105.7 98.3 337.5
08/05 05:40 11.2 81 8.21 8.1 11 13 1028.7 0 18.9 26.6 40.2 105.3 97.7 335.6
08/05 05:30 11.3 81 8.26 8.2 11 15 1028.7 0 19.0 26.7 40.4 105.7 98.3 337.5
08/05 05:20 11.3 80 8.16 8 11 13 1028.6 0 18.8 26.5 40.0 104.6 96.9 332.7
08/05 05:10 11.3 81 8.26 8.2 11 15 1028.7 0 19.0 26.7 40.4 105.7 98.3 337.5
08/05 05:00 11.2 81 8.21 8.1 11 13 1028.7 0 18.9 26.6 40.2 105.3 97.7 335.6
08/05 04:50 11.1 81 8.16 8 11 15 1028.7 0 18.8 26.6 40.1 104.9 97.2 333.6
08/05 04:40 11 81 8.11 7.9 9 11 1028.8 0 18.7 26.5 39.9 104.5 96.6 331.7
08/05 04:30 10.9 81 8.06 7.8 11 15 1028.9 0 18.6 26.5 39.8 104.1 96.1 329.7
08/05 04:20 10.8 80 7.91 7.5 11 13 1028.7 0 18.2 26.2 39.2 102.5 94.1 323.0
08/05 04:10 10.8 80 7.91 7.5 11 13 1028.7 0 18.2 26.2 39.2 102.5 94.1 323.0
08/05 04:00 10.8 80 7.91 7.5 13 15 1028.8 0 18.2 26.2 39.2 102.5 94.1 323.0
08/05 03:50 10.7 81 7.96 7.6 11 13 1028.8 0 18.4 26.3 39.4 103.2 94.9 325.8
08/05 03:40 10.6 81 7.91 7.5 9 11 1028.9 0 18.3 26.3 39.3 102.8 94.4 323.8
08/05 03:30 10.5 82 7.95 7.6 9 13 1028.9 0 18.3 26.4 39.5 103.4 95.1 326.2
08/05 03:20 10.3 82 7.85 7.4 11 13 1028.9 0 18.1 26.3 39.2 102.5 93.9 322.2
08/05 03:10 10.1 82 7.76 7.2 9 11 1028.9 0 18.0 26.2 38.9 101.8 93.0 318.7
08/05 03:00 10.1 82 7.76 7.2 9 13 1029.1 0 18.0 26.2 38.9 101.8 93.0 318.8
08/05 02:50 10 83 7.8 7.3 11 11 1029.1 0 18.0 26.3 39.1 102.4 93.6 321.1
08/05 02:40 9.8 84 7.8 7.2 9 13 1029.1 0 18.1 26.4 39.2 102.7 93.9 321.9
08/05 02:30 9.6 84 7.7 7 9 11 1029.1 0 17.8 26.2 38.9 101.8 92.8 318.0
08/05 02:20 9.6 83 7.61 6.9 7 9 1029 0 17.7 26.1 38.5 100.8 91.5 313.6
08/05 02:10 9.9 82 7.66 7 11 13 1029 0 17.7 26.1 38.6 101.0 91.8 314.8
08/05 02:00 10.1 81 7.66 7 11 17 1029.1 0 17.7 26.0 38.5 100.7 91.6 314.0
08/05 01:50 10.2 82 7.81 7.3 9 11 1029.3 0 18.1 26.3 39.1 102.3 93.5 320.8
08/05 01:40 9.9 83 7.75 7.2 9 9 1029.2 0 17.9 26.2 39.0 102.0 93.1 319.2
08/05 01:30 9.8 82 7.61 6.9 9 13 1029.3 0 17.6 26.0 38.5 100.6 91.3 312.9
08/05 01:20 9.8 82 7.61 6.9 9 11 1029.2 0 17.6 26.0 38.5 100.6 91.3 312.9
08/05 01:10 9.6 83 7.61 6.9 13 15 1029.3 0 17.7 26.1 38.6 100.8 91.5 313.7
08/05 01:00 9.5 83 7.56 6.8 11 13 1029.4 0 17.6 26.1 38.4 100.4 91.0 311.7
08/05 00:50 9.5 83 7.56 6.8 11 13 1029.4 0 17.6 26.1 38.4 100.4 91.0 311.7
08/05 00:40 9.5 83 7.56 6.8 9 11 1029.5 0 17.6 26.1 38.4 100.4 91.0 311.8
08/05 00:30 9.5 83 7.56 6.8 11 19 1029.5 0 17.6 26.1 38.4 100.4 91.0 311.8
08/05 00:20 9.3 85 7.64 6.9 11 13 1029.6 0 17.7 26.3 38.8 101.6 92.3 316.4
08/05 00:10 9 85 7.5 6.6 11 13 1029.6 0 17.4 26.1 38.4 100.4 90.8 310.9
08/05 00:00 9 85 7.5 6.6 11 15 1029.6 0 17.4 26.1 38.4 100.4 90.8 310.9
07/05 23:50 9.1 85 7.54 6.7 11 13 1029.8 0 17.5 26.2 38.5 100.8 91.2 312.5
07/05 23:40 9.2 84 7.5 6.6 11 13 1029.6 0 17.4 26.1 38.3 100.2 90.5 310.1
07/05 23:30 9.4 84 7.6 6.8 11 15 1029.6 0 17.6 26.2 38.6 101.0 91.7 314.1
07/05 23:20 9.4 84 7.6 6.8 9 11 1029.6 0 17.6 26.2 38.6 101.0 91.7 314.1
07/05 23:10 9.2 84 7.5 6.6 9 13 1029.6 0 17.4 26.1 38.3 100.2 90.5 310.1
07/05 23:00 9.4 83 7.51 6.7 11 13 1029.6 0 17.4 26.0 38.2 100.0 90.4 309.8
07/05 22:50 9.5 82 7.47 6.6 11 11 1029.7 0 17.4 25.9 38.0 99.5 89.8 307.5
07/05 22:40 9.7 81 7.47 6.6 11 11 1029.7 0 17.3 25.9 37.9 99.2 89.6 306.7
07/05 22:30 10 80 7.52 6.7 11 15 1029.6 0 17.4 25.9 38.0 99.4 89.9 307.9
07/05 22:20 10.3 80 7.66 7 9 11 1029.7 0 17.7 26.0 38.4 100.5 91.4 313.4
07/05 22:10 10.2 80 7.61 6.9 13 17 1029.9 0 17.6 26.0 38.3 100.1 90.9 311.5
07/05 22:00 10.3 79 7.57 6.8 11 17 1030.1 0 17.5 25.9 38.1 99.6 90.2 309.2
07/05 21:50 10.4 78 7.52 6.7 11 13 1030.1 0 17.4 25.8 37.8 98.9 89.4 306.5
07/05 21:40 10.5 77 7.47 6.6 11 13 1030 0 17.3 25.6 37.6 98.2 88.7 303.7
07/05 21:30 10.6 76 7.42 6.6 11 15 1029.9 0 17.2 25.5 37.3 97.6 87.9 301.0
07/05 21:20 10.5 75 7.28 6.3 11 13 1029.8 0 16.9 25.3 36.8 96.2 86.1 294.8
07/05 21:10 10.8 74 7.32 6.4 11 13 1029.8 0 17.0 25.3 36.8 96.2 86.3 295.5
07/05 21:00 11 73 7.31 6.4 15 20 1029.8 0 16.9 25.2 36.7 95.9 85.9 294.3
07/05 20:50 11.2 72 7.3 6.3 17 19 1029.8 0 16.9 25.2 36.6 95.5 85.6 293.1
07/05 20:40 11.4 71 7.29 6.3 15 17 1029.9 0 16.9 25.1 36.4 95.2 85.3 291.9
07/05 20:30 11.4 70 7.19 6.1 13 19 1029.9 0 16.7 24.9 36.0 94.1 83.9 287.3
07/05 20:20 11.8 68 7.16 6.1 17 20 1029.9 0 16.6 24.8 35.7 93.3 83.1 284.5
07/05 20:10 11.8 67 7.05 5.9 15 17 1029.9 0 16.4 24.6 35.3 92.2 81.7 279.5
07/05 20:00 12.1 66 7.08 5.9 17 22 1029.9 0 16.4 24.6 35.3 92.1 81.8 279.8
07/05 19:50 12.2 65 7.01 5.8 19 20 1029.8 0 16.3 24.4 35.0 91.3 80.8 276.3
07/05 19:40 12.3 64 6.95 5.7 15 17 1029.8 0 16.1 24.3 34.7 90.5 79.9 273.2
07/05 19:30 12.3 64 6.95 5.7 13 17 1029.8 0 16.1 24.3 34.7 90.5 79.9 273.2

Last Refresh: 08-May-2026 12:08:52

Bureau of Meteorology